Terminal Aerodrome Forecast
Issued by NWS Wichita, KS

Home | Current Version | Previous Version | Graphics & Text | Print | Product List | Glossary On
Versions: 1 2 3 4 5 6 7 8 9 10 11 12 13 14 15 16 17 18 19
023
FTUS43 KICT 051740
TAFICT
TAF
KICT 051740Z 0518/0618 18015G25KT P6SM SKC
     FM060000 17008KT P6SM SKC
     FM060300 16006KT 6SM BR SCT020
      TEMPO 0603/0607 BKN020
     FM060700 36016G24KT P6SM SCT150=

USA.gov is the U.S. government's official web portal to all federal, state and local government web resources and services.